Archival Weather

Chicago O'Hare International

Chicago, Illinois (KORD)

Report from: Thursday, December 29, 2022 4:51 PM CST
Current time: Friday, June 21, 2024 2:00 AM CDT

Current weather – Weather history – Daily summaries
Weather forecast

Temperature13.9°C (57.0°F)
Dew point10.6°C (51.1°F)
Winds 15 kts (7.7 m/s, 17.3 mph) South (180°)
Wind gusts 27 kts (13.9 m/s, 31.1 mph)
Peak wind 27 kts (13.9 m/s, 31.1 mph) South (190°) at 22:42
Visibility10 mi. (16.1 km)
Clouds Ceiling: Broken clouds 2,000 ft. (610 m)
Broken clouds 2,800 ft. (853 m)
Broken clouds 25,000 ft. (7,620 m)
Altimeter29.81 in.Hg (1009 mB)
Relative humidity81 %
Density altitude174 ft. (53 m)
Sea-level pressure101.0 kPa (1010 mB, 29.81 in.Hg)
Remarks System requires maintenance
Automated weather observing station with precipitation discriminator
Flight conditions Marginal Visual Meteorological Conditions
Raw dataKORD 292251Z 18015G27KT 10SM BKN020 BKN028 BKN250 14/11 A2981 RMK AO2 PK WND 19027/2242 SLP096 T01390106 $
An error has occurred. This application may no longer respond until reloaded. Reload 🗙